Time;durP1;ratioP1;P1;durP2;ratioP2;P2;SDS_P1;SDS_P2;PMS_P1;PMS_P2;Temp;Humidity;BMP_temperature;BMP_pressure;BME280_temperature;BME280_humidity;BME280_pressure;Samples;Min_cycle;Max_cycle;Signal;HPM_P1;HPM_P2
2022/07/15 00:02:35;;;;;;;3.47;1.40;;;;;;;12.20;87.28;101310.50;5999911;28;20365;-67
2022/07/15 00:05:31;;;;;;;4.75;1.75;;;;;;;12.22;86.56;101321.81;6001934;28;20042;-66
2022/07/15 00:08:28;;;;;;;4.55;1.40;;;;;;;12.45;86.91;101312.53;5998790;28;20438;-66
2022/07/15 00:11:23;;;;;;;4.00;1.40;;;;;;;12.29;86.30;101317.59;5991760;28;20045;-66
2022/07/15 00:14:18;;;;;;;7.17;1.60;;;;;;;12.24;86.63;101317.19;6000611;28;20031;-67
2022/07/15 00:17:14;;;;;;;6.03;1.40;;;;;;;12.01;87.67;101318.50;5999895;28;20093;-65
2022/07/15 00:20:12;;;;;;;4.45;1.67;;;;;;;12.08;87.56;101308.97;5999228;28;20376;-64
2022/07/15 00:23:08;;;;;;;4.50;1.35;;;;;;;11.84;88.08;101312.88;5992138;28;20031;-67
2022/07/15 00:26:03;;;;;;;5.20;1.60;;;;;;;11.92;88.89;101313.03;6001105;28;20386;-67
2022/07/15 00:28:58;;;;;;;6.27;2.47;;;;;;;11.90;88.90;101307.00;5994809;28;20105;-66
2022/07/15 00:31:54;;;;;;;2.87;1.27;;;;;;;11.88;88.22;101295.66;5994415;28;20423;-66
2022/07/15 00:34:51;;;;;;;6.10;1.70;;;;;;;12.06;87.94;101300.28;5996396;28;20410;-66
2022/07/15 00:37:46;;;;;;;4.35;1.80;;;;;;;11.93;87.92;101301.41;5999249;28;20039;-67
2022/07/15 00:40:43;;;;;;;6.90;1.43;;;;;;;11.94;88.13;101304.91;5993168;28;20371;-66
2022/07/15 00:43:40;;;;;;;4.60;1.60;;;;;;;11.83;88.20;101316.50;6002666;28;20107;-65
2022/07/15 00:46:36;;;;;;;9.52;1.48;;;;;;;11.60;88.86;101304.44;5992748;28;20041;-67
2022/07/15 00:49:32;;;;;;;4.15;1.90;;;;;;;11.62;89.04;101318.44;5993113;28;20031;-66
2022/07/15 00:52:28;;;;;;;3.85;1.60;;;;;;;11.65;89.11;101302.22;6003777;28;20171;-66
2022/07/15 00:55:24;;;;;;;5.15;1.70;;;;;;;11.65;89.13;101306.69;6004601;28;20038;-66
2022/07/15 00:58:23;;;;;;;5.70;1.30;;;;;;;11.68;89.32;101301.09;6003243;28;20066;-67
2022/07/15 01:01:19;;;;;;;3.40;1.52;;;;;;;11.81;88.40;101313.16;6005057;28;20034;-68
2022/07/15 01:04:17;;;;;;;5.18;1.70;;;;;;;11.81;88.82;101299.88;6004518;28;20507;-67
2022/07/15 01:07:13;;;;;;;5.07;1.60;;;;;;;11.83;88.33;101311.19;6000146;28;20042;-67
2022/07/15 01:10:08;;;;;;;9.48;2.42;;;;;;;11.88;88.24;101314.28;6017472;28;20349;-66
2022/07/15 01:13:04;;;;;;;3.80;1.42;;;;;;;11.87;88.27;101315.28;5995331;28;20082;-65
2022/07/15 01:15:59;;;;;;;3.65;1.48;;;;;;;12.08;87.81;101320.44;5995542;28;20046;-67
2022/07/15 01:18:55;;;;;;;4.10;1.37;;;;;;;12.02;87.94;101322.81;6002327;28;20039;-65
2022/07/15 01:21:50;;;;;;;5.13;1.63;;;;;;;12.28;88.24;101310.63;5997240;28;20027;-68
2022/07/15 01:24:46;;;;;;;8.97;1.43;;;;;;;12.43;86.13;101319.81;5996592;28;20038;-68
2022/07/15 01:27:41;;;;;;;6.00;1.60;;;;;;;12.39;86.11;101318.44;5994577;28;20035;-67
2022/07/15 01:30:36;;;;;;;4.20;1.70;;;;;;;12.41;86.33;101327.13;6004267;28;20085;-67
2022/07/15 01:33:33;;;;;;;3.03;1.23;;;;;;;12.62;85.82;101319.78;6003530;28;20027;-65
2022/07/15 01:36:28;;;;;;;6.95;1.73;;;;;;;12.55;85.49;101316.03;6002833;28;20773;-66
2022/07/15 01:39:23;;;;;;;4.50;1.47;;;;;;;12.75;84.79;101320.28;6001164;28;20038;-67
2022/07/15 01:42:18;;;;;;;3.47;1.40;;;;;;;12.83;84.64;101325.72;5997581;28;20074;-65
2022/07/15 01:45:14;;;;;;;7.17;1.50;;;;;;;12.94;84.37;101314.91;5992987;28;20050;-67
2022/07/15 01:49:21;;;;;;;8.53;1.50;;;;;;;12.81;84.89;101322.38;5993156;28;20035;-67
2022/07/15 01:51:24;;;;;;;2.08;1.23;;;;;;;12.79;85.13;101327.03;6011466;28;20042;-67
2022/07/15 01:54:21;;;;;;;4.17;1.43;;;;;;;12.60;85.44;101327.06;5997895;28;20034;-68
2022/07/15 01:57:17;;;;;;;5.13;1.45;;;;;;;12.65;85.85;101324.81;5999697;28;20134;-67
2022/07/15 02:00:16;;;;;;;3.63;1.63;;;;;;;12.70;85.75;101338.53;5998937;28;20113;-67
2022/07/15 02:03:11;;;;;;;6.40;1.30;;;;;;;12.65;85.61;101339.94;5994983;28;20035;-68
2022/07/15 02:06:07;;;;;;;3.83;1.63;;;;;;;12.56;86.02;101336.31;6001857;28;20058;-68
2022/07/15 02:09:02;;;;;;;7.40;1.60;;;;;;;12.52;86.00;101330.47;5999001;28;20051;-67
2022/07/15 02:11:58;;;;;;;4.97;1.35;;;;;;;12.79;85.04;101332.34;5997225;28;20035;-67
2022/07/15 02:14:53;;;;;;;5.80;1.70;;;;;;;12.64;85.12;101339.09;5998405;28;20031;-66
2022/07/15 02:17:48;;;;;;;6.10;1.27;;;;;;;12.64;85.30;101332.97;5992202;28;20035;-66
2022/07/15 02:20:44;;;;;;;8.10;1.43;;;;;;;12.51;85.84;101325.28;6003105;28;20442;-64
2022/07/15 02:23:39;;;;;;;4.80;1.40;;;;;;;12.56;84.79;101336.31;6002779;28;20286;-67
2022/07/15 02:26:34;;;;;;;7.00;1.70;;;;;;;12.48;84.75;101328.22;6000911;28;20454;-65
2022/07/15 02:29:30;;;;;;;5.75;1.35;;;;;;;12.44;85.22;101345.47;6003113;28;20045;-67
2022/07/15 02:32:25;;;;;;;7.27;1.90;;;;;;;12.41;84.76;101338.59;5996650;28;20049;-65
2022/07/15 02:35:20;;;;;;;6.33;1.37;;;;;;;12.39;84.47;101345.06;6003488;28;20039;-66
2022/07/15 02:38:17;;;;;;;6.43;1.47;;;;;;;12.39;84.52;101334.41;5996016;28;20142;-65
2022/07/15 02:41:12;;;;;;;7.60;1.55;;;;;;;12.40;84.35;101346.72;5999240;28;20282;-65
2022/07/15 02:44:08;;;;;;;5.20;1.30;;;;;;;12.41;84.26;101345.75;5994508;28;20089;-65
2022/07/15 02:47:03;;;;;;;3.63;2.17;;;;;;;12.33;84.23;101337.63;5997266;28;20035;-65
2022/07/15 02:49:58;;;;;;;8.13;1.50;;;;;;;12.23;84.58;101350.91;6002927;28;20042;-67
2022/07/15 02:52:53;;;;;;;4.53;1.40;;;;;;;12.06;84.29;101343.66;5993926;28;20031;-65
2022/07/15 02:55:49;;;;;;;5.07;1.37;;;;;;;11.91;84.78;101343.25;5993926;28;20030;-67
2022/07/15 02:58:44;;;;;;;4.72;1.20;;;;;;;11.89;84.92;101347.84;6002611;28;20113;-65
2022/07/15 03:01:40;;;;;;;8.53;1.40;;;;;;;11.78;85.51;101348.00;5995912;28;20058;-67
2022/07/15 03:04:35;;;;;;;3.95;1.35;;;;;;;11.68;85.70;101357.75;6025156;28;20038;-66
2022/07/15 03:07:31;;;;;;;8.65;1.20;;;;;;;11.64;85.95;101361.63;6024313;28;20061;-65
2022/07/15 03:10:26;;;;;;;3.00;1.23;;;;;;;11.57;86.41;101352.53;6015572;28;20057;-65
2022/07/15 03:13:22;;;;;;;4.37;1.50;;;;;;;11.54;86.26;101368.75;6018338;28;20462;-67
2022/07/15 03:16:18;;;;;;;6.95;1.25;;;;;;;11.36;86.83;101359.72;6025005;28;20474;-65
2022/07/15 03:19:13;;;;;;;7.20;1.20;;;;;;;11.47;86.59;101374.75;6015282;28;20100;-65
2022/07/15 03:22:08;;;;;;;5.20;1.17;;;;;;;11.41;86.65;101362.84;6025454;28;20034;-68
2022/07/15 03:25:04;;;;;;;6.23;1.60;;;;;;;11.43;86.37;101370.66;6025853;28;20517;-67
2022/07/15 03:27:59;;;;;;;6.00;1.23;;;;;;;11.41;86.45;101372.63;6023633;28;20034;-67
2022/07/15 03:30:55;;;;;;;4.80;1.50;;;;;;;11.39;86.62;101369.28;6018063;28;20042;-64
2022/07/15 03:33:50;;;;;;;4.43;1.10;;;;;;;11.35;86.52;101382.81;6022599;28;20037;-66
2022/07/15 03:36:46;;;;;;;3.55;1.20;;;;;;;11.33;86.94;101376.78;6023531;28;20052;-64
2022/07/15 03:39:42;;;;;;;6.13;1.33;;;;;;;11.33;86.94;101370.66;6025159;28;20046;-64
2022/07/15 03:42:37;;;;;;;5.90;1.27;;;;;;;11.40;86.59;101382.41;6017665;28;20049;-66
2022/07/15 03:45:33;;;;;;;6.67;1.13;;;;;;;11.45;86.36;101382.81;6025949;28;20458;-65
2022/07/15 03:48:28;;;;;;;6.32;1.50;;;;;;;11.39;86.10;101372.75;6017723;28;20482;-67
2022/07/15 03:51:30;;;;;;;7.03;1.67;;;;;;;11.45;86.12;101363.38;6022969;28;20039;-67
2022/07/15 03:54:25;;;;;;;6.35;1.17;;;;;;;11.53;86.00;101367.06;6013991;28;20042;-67
2022/07/15 03:57:21;;;;;;;6.07;1.10;;;;;;;11.58;85.44;101354.19;6017429;28;20406;-66
2022/07/15 04:00:16;;;;;;;6.47;1.70;;;;;;;11.72;85.00;101377.75;6023728;28;20026;-64
2022/07/15 04:03:11;;;;;;;10.38;1.98;;;;;;;11.66;84.62;101369.47;6013268;28;20698;-68
2022/07/15 04:06:07;;;;;;;4.83;1.13;;;;;;;11.63;84.87;101381.19;6020334;28;20050;-63
2022/07/15 04:09:02;;;;;;;5.53;1.20;;;;;;;11.73;84.32;101387.41;6021147;28;20037;-64
2022/07/15 04:11:58;;;;;;;5.65;1.20;;;;;;;11.72;84.30;101368.94;6021692;28;20031;-64
2022/07/15 04:14:53;;;;;;;6.95;1.50;;;;;;;11.73;84.25;101376.78;6027957;28;20057;-63
2022/07/15 04:17:49;;;;;;;4.30;1.00;;;;;;;11.99;83.53;101379.75;6017297;28;20071;-66
2022/07/15 04:20:44;;;;;;;9.37;2.43;;;;;;;12.05;83.08;101373.03;6026090;28;20046;-63
2022/07/15 04:23:39;;;;;;;5.63;1.43;;;;;;;12.08;83.23;101378.06;6023582;28;20286;-63
2022/07/15 04:26:35;;;;;;;4.83;1.20;;;;;;;12.03;83.39;101381.16;6022938;28;20046;-63
2022/07/15 04:29:30;;;;;;;4.53;1.10;;;;;;;12.18;82.55;101378.91;6021762;28;20137;-66
2022/07/15 04:32:26;;;;;;;5.90;0.93;;;;;;;12.29;83.35;101392.91;6020256;28;20042;-68
2022/07/15 04:35:22;;;;;;;5.25;1.45;;;;;;;12.62;82.19;101393.44;6027013;28;20610;-66
2022/07/15 04:38:17;;;;;;;7.97;1.70;;;;;;;12.64;81.33;101397.63;6022055;28;20038;-63
2022/07/15 04:41:12;;;;;;;4.75;1.23;;;;;;;12.64;82.05;101402.97;6023478;28;20080;-63
2022/07/15 04:44:08;;;;;;;5.17;0.90;;;;;;;12.72;81.57;101400.44;6023597;28;20034;-64
2022/07/15 04:47:03;;;;;;;6.07;1.40;;;;;;;12.70;81.15;101398.88;6023967;28;20035;-65
2022/07/15 04:53:12;;;;;;;4.40;1.33;;;;;;;12.74;80.95;101398.47;6026679;28;20274;-66
2022/07/15 04:56:08;;;;;;;7.68;1.35;;;;;;;12.77;81.66;101410.66;6023062;28;20058;-65
2022/07/15 04:59:03;;;;;;;7.05;1.23;;;;;;;12.93;82.36;101400.25;6023118;28;20030;-63
2022/07/15 05:01:59;;;;;;;8.23;1.50;;;;;;;12.92;81.90;101401.22;6028654;28;20041;-63
2022/07/15 05:04:54;;;;;;;4.10;1.15;;;;;;;12.89;81.96;101398.84;6018652;28;20296;-63
2022/07/15 05:07:50;;;;;;;4.03;1.20;;;;;;;13.04;81.22;101400.09;6025259;28;20076;-64
2022/07/15 05:10:46;;;;;;;4.85;1.20;;;;;;;13.08;80.62;101402.34;6012255;28;20031;-64
2022/07/15 05:13:41;;;;;;;5.18;1.48;;;;;;;13.27;80.62;101405.91;6014296;28;20097;-66
2022/07/15 05:16:37;;;;;;;9.03;1.50;;;;;;;13.58;79.36;101407.31;6017910;28;20042;-64
2022/07/15 05:19:32;;;;;;;6.50;1.20;;;;;;;13.45;78.17;101398.84;6026104;28;20997;-64
2022/07/15 05:22:27;;;;;;;5.75;1.33;;;;;;;13.38;78.97;101403.06;6025035;28;20069;-63
2022/07/15 05:25:23;;;;;;;7.70;1.40;;;;;;;13.44;78.31;101407.81;6024017;28;20038;-67
2022/07/15 05:28:18;;;;;;;8.85;1.50;;;;;;;13.60;77.92;101405.34;6022778;28;20121;-65
2022/07/15 05:31:14;;;;;;;7.72;1.20;;;;;;;13.89;77.19;101419.31;6024444;28;20034;-64
2022/07/15 05:34:09;;;;;;;7.40;1.53;;;;;;;13.90;76.86;101415.69;6015932;28;20046;-65
2022/07/15 05:37:04;;;;;;;6.43;1.30;;;;;;;13.91;77.13;101416.53;6016805;28;20070;-63
2022/07/15 05:40:00;;;;;;;5.03;1.30;;;;;;;13.93;76.61;101420.72;6023580;28;20048;-65
2022/07/15 05:42:55;;;;;;;7.30;1.40;;;;;;;13.98;76.76;101421.09;6025259;28;20029;-65
2022/07/15 05:45:50;;;;;;;4.65;1.10;;;;;;;14.24;75.76;101430.03;6019046;28;20038;-65
2022/07/15 05:48:46;;;;;;;6.80;1.33;;;;;;;14.19;75.69;101421.66;6023889;28;20047;-65
2022/07/15 05:51:41;;;;;;;9.50;1.20;;;;;;;14.47;74.55;101424.25;6025381;28;20038;-66
2022/07/15 05:54:39;;;;;;;4.47;1.47;;;;;;;14.49;74.03;101431.13;6018946;28;20088;-65
2022/07/15 05:57:34;;;;;;;3.22;1.00;;;;;;;14.60;73.75;101420.22;6027908;28;20067;-66
2022/07/15 06:00:29;;;;;;;5.63;1.40;;;;;;;14.69;72.66;101426.47;6025890;28;20045;-63
2022/07/15 06:03:25;;;;;;;8.27;1.60;;;;;;;14.92;73.15;101430.28;6019803;28;20043;-64
2022/07/15 06:06:20;;;;;;;7.17;1.77;;;;;;;14.94;72.62;101414.97;6028021;28;20030;-63
2022/07/15 06:09:15;;;;;;;7.13;1.48;;;;;;;15.09;71.88;101429.41;6012785;28;20538;-64
2022/07/15 06:12:11;;;;;;;5.10;1.10;;;;;;;15.08;71.22;101424.25;6022055;28;20093;-63
2022/07/15 06:15:07;;;;;;;6.30;1.50;;;;;;;15.34;71.13;101439.25;6018974;28;20038;-66
2022/07/15 06:18:02;;;;;;;6.90;1.20;;;;;;;15.43;70.38;101440.13;6025856;28;20490;-65
2022/07/15 06:20:58;;;;;;;7.07;1.40;;;;;;;15.52;69.89;101449.06;6026633;28;20045;-64
2022/07/15 06:23:53;;;;;;;8.50;1.95;;;;;;;15.60;69.58;101447.25;6022111;28;20026;-66
2022/07/15 06:26:48;;;;;;;9.30;1.30;;;;;;;15.67;69.56;101450.13;6026954;28;20479;-64
2022/07/15 06:29:44;;;;;;;7.83;1.60;;;;;;;15.88;69.22;101458.56;6026119;28;20022;-65
2022/07/15 06:32:39;;;;;;;5.77;1.30;;;;;;;15.54;69.33;101452.41;6025065;28;20065;-65
2022/07/15 06:35:34;;;;;;;3.77;0.90;;;;;;;15.86;68.40;101455.22;6026148;28;20348;-66
2022/07/15 06:38:33;;;;;;;5.37;0.97;;;;;;;15.95;67.73;101455.06;6017054;28;20101;-65
2022/07/15 06:41:31;;;;;;;6.63;1.25;;;;;;;15.84;66.53;101449.19;6022475;28;20281;-64
2022/07/15 06:44:26;;;;;;;6.13;1.10;;;;;;;16.02;65.74;101463.28;6025793;28;20466;-64
2022/07/15 06:47:21;;;;;;;4.35;1.02;;;;;;;16.26;65.00;101462.50;6025923;28;20092;-63
2022/07/15 06:50:17;;;;;;;7.43;1.33;;;;;;;16.27;64.63;101451.66;6019175;28;20447;-63
2022/07/15 06:53:12;;;;;;;2.57;1.00;;;;;;;16.65;64.22;101455.56;6019110;28;20027;-66
2022/07/15 06:56:08;;;;;;;6.80;1.40;;;;;;;16.65;62.93;101445.69;6023844;28;20040;-65
2022/07/15 06:59:04;;;;;;;6.18;1.00;;;;;;;16.85;61.96;101445.34;6025573;28;20019;-63
2022/07/15 07:01:59;;;;;;;4.93;0.98;;;;;;;16.83;62.42;101455.38;6024570;28;20340;-64
2022/07/15 07:04:54;;;;;;;12.77;1.42;;;;;;;17.05;61.57;101454.69;6014883;28;20041;-67
2022/07/15 07:07:50;;;;;;;3.60;1.20;;;;;;;17.13;60.76;101457.34;6025674;28;20038;-64
2022/07/15 07:10:45;;;;;;;4.03;1.13;;;;;;;16.79;59.70;101452.22;6024288;28;20026;-65
2022/07/15 07:13:40;;;;;;;5.65;1.02;;;;;;;16.79;58.89;101456.75;6024984;28;20038;-64
2022/07/15 07:16:36;;;;;;;5.70;1.03;;;;;;;17.09;59.61;101456.84;6024720;28;20117;-63
2022/07/15 07:19:31;;;;;;;4.93;1.10;;;;;;;18.17;57.03;101458.00;6024979;28;20304;-64
2022/07/15 07:22:26;;;;;;;4.45;0.93;;;;;;;18.72;55.22;101450.59;6024530;28;20064;-64
2022/07/15 07:25:22;;;;;;;3.85;1.13;;;;;;;18.97;51.46;101440.44;6025055;28;20046;-63
2022/07/15 07:28:17;;;;;;;3.57;0.80;;;;;;;17.70;54.35;101458.06;6024636;28;20470;-65
2022/07/15 07:31:13;;;;;;;2.92;0.60;;;;;;;17.70;53.24;101463.44;6023941;28;20046;-64
2022/07/15 07:34:08;;;;;;;5.03;1.15;;;;;;;17.55;53.73;101455.28;6022414;28;20030;-64
2022/07/15 07:37:04;;;;;;;2.17;0.77;;;;;;;17.25;54.80;101453.31;6024767;28;20092;-63
2022/07/15 07:39:59;;;;;;;3.33;1.00;;;;;;;17.33;54.00;101456.00;6024459;28;20030;-64
2022/07/15 07:42:58;;;;;;;3.23;0.90;;;;;;;17.06;53.92;101457.22;6024897;28;20041;-66
2022/07/15 07:45:54;;;;;;;3.83;0.80;;;;;;;16.92;53.83;101443.66;6025385;28;20258;-64
2022/07/15 07:48:49;;;;;;;4.97;0.80;;;;;;;17.24;54.16;101446.28;6014542;28;20039;-65
2022/07/15 07:51:44;;;;;;;3.73;0.50;;;;;;;18.23;51.93;101443.88;6029781;28;20038;-65
2022/07/15 07:54:41;;;;;;;0.97;0.50;;;;;;;18.50;50.80;101446.06;6020365;28;20702;-64
2022/07/15 07:57:49;;;;;;;3.58;0.75;;;;;;;18.52;51.32;101438.66;6029588;28;20096;-63
2022/07/15 08:00:44;;;;;;;3.55;0.50;;;;;;;18.36;50.85;101433.38;6029901;28;20034;-64
2022/07/15 08:03:40;;;;;;;3.45;0.80;;;;;;;17.88;53.09;101439.91;6028629;28;20550;-63
2022/07/15 08:06:38;;;;;;;2.10;0.60;;;;;;;17.27;55.18;101443.25;6028878;28;20444;-67
2022/07/15 08:09:33;;;;;;;2.97;0.60;;;;;;;17.02;55.19;101452.34;6026210;28;20310;-66
2022/07/15 08:12:29;;;;;;;7.68;0.85;;;;;;;16.70;54.82;101453.22;6026265;28;20394;-65
2022/07/15 08:15:24;;;;;;;3.07;0.70;;;;;;;16.76;55.37;101451.72;6029373;28;20114;-67
2022/07/15 08:18:19;;;;;;;4.97;1.10;;;;;;;16.83;56.21;101452.69;6024173;28;20280;-65
2022/07/15 08:21:14;;;;;;;4.17;0.70;;;;;;;16.86;55.80;101447.00;6029100;28;20705;-68
2022/07/15 08:24:11;;;;;;;3.73;0.73;;;;;;;16.93;54.43;101454.19;6028456;28;20092;-65
2022/07/15 08:27:06;;;;;;;4.80;0.68;;;;;;;16.95;53.42;101462.09;6029618;28;20026;-65
2022/07/15 08:30:02;;;;;;;4.68;0.57;;;;;;;16.96;53.85;101447.69;6026242;28;20089;-64
2022/07/15 08:32:58;;;;;;;4.88;0.73;;;;;;;16.79;54.60;101451.38;6028550;28;20034;-66
2022/07/15 08:35:53;;;;;;;2.65;0.63;;;;;;;16.97;55.41;101460.06;6028618;28;20037;-66
2022/07/15 08:38:49;;;;;;;1.98;0.50;;;;;;;16.99;54.57;101463.41;6028834;28;20393;-67
2022/07/15 08:41:44;;;;;;;1.90;0.60;;;;;;;17.06;54.47;101462.59;6027893;28;20069;-65
2022/07/15 08:44:40;;;;;;;2.25;0.47;;;;;;;17.21;54.46;101468.06;6024367;28;20309;-65
2022/07/15 08:47:37;;;;;;;2.08;0.60;;;;;;;17.33;54.21;101464.03;6028493;28;20030;-67
2022/07/15 08:50:34;;;;;;;1.65;0.52;;;;;;;17.50;53.39;101471.00;6028079;28;20065;-66
2022/07/15 08:53:30;;;;;;;3.28;0.60;;;;;;;17.83;53.63;101477.97;6027515;28;20038;-67
2022/07/15 08:56:26;;;;;;;4.90;0.80;;;;;;;17.56;52.94;101456.94;6028930;28;20041;-65
2022/07/15 08:59:21;;;;;;;4.47;0.60;;;;;;;17.68;54.25;101460.94;6043567;28;20030;-68
2022/07/15 09:02:18;;;;;;;2.45;0.70;;;;;;;17.47;54.27;101475.91;6027041;28;20026;-66
2022/07/15 09:05:29;;;;;;;4.75;0.77;;;;;;;17.40;54.67;101486.47;6027969;28;20042;-67
2022/07/15 09:08:24;;;;;;;2.40;0.80;;;;;;;17.33;54.47;101474.75;6017715;28;20093;-66
2022/07/15 09:11:27;;;;;;;2.88;0.75;;;;;;;17.68;53.97;101476.19;6011325;28;20038;-67
2022/07/15 09:14:26;;;;;;;2.55;0.75;;;;;;;17.92;52.75;101473.41;6028668;28;20041;-67
2022/07/15 09:17:23;;;;;;;4.13;0.93;;;;;;;17.75;53.21;101467.25;6027196;28;20367;-65
2022/07/15 09:20:18;;;;;;;4.95;0.80;;;;;;;17.92;51.89;101459.13;6021826;28;20045;-66
2022/07/15 09:23:20;;;;;;;2.37;0.80;;;;;;;17.97;52.24;101476.38;6023418;28;20034;-67
2022/07/15 09:26:26;;;;;;;2.88;0.70;;;;;;;17.83;50.91;101469.91;6028475;28;20038;-67
2022/07/15 09:36:05;;;;;;;2.13;0.60;;;;;;;17.35;52.14;101483.47;6024067;28;20051;-64
2022/07/15 09:39:03;;;;;;;4.45;0.82;;;;;;;17.27;51.63;101478.13;6019297;28;20039;-66
2022/07/15 09:42:05;;;;;;;5.18;0.70;;;;;;;17.51;51.58;101479.91;6027362;28;20038;-67
2022/07/15 09:45:18;;;;;;;4.95;0.73;;;;;;;17.79;50.77;101490.06;6021675;28;20478;-65
2022/07/15 09:48:14;;;;;;;1.23;0.47;;;;;;;18.02;50.13;101482.06;6025056;28;20113;-66
2022/07/15 09:51:09;;;;;;;2.37;0.80;;;;;;;18.29;49.87;101483.44;6023491;28;20057;-66
2022/07/15 09:54:05;;;;;;;3.42;0.70;;;;;;;18.53;49.12;101485.16;6027044;28;20030;-66
2022/07/15 09:57:03;;;;;;;2.92;0.52;;;;;;;18.47;48.17;101475.09;6026433;28;20061;-67
2022/07/15 09:59:59;;;;;;;1.77;0.57;;;;;;;18.62;47.97;101482.22;6018550;28;20031;-67
2022/07/15 10:02:54;;;;;;;5.30;0.70;;;;;;;18.56;48.17;101482.97;6025203;28;20061;-66
2022/07/15 10:05:53;;;;;;;3.77;0.90;;;;;;;18.49;48.30;101476.63;6026302;28;20512;-67
2022/07/15 10:08:48;;;;;;;4.53;0.88;;;;;;;18.73;48.53;101472.91;6025847;28;20041;-67
2022/07/15 10:11:47;;;;;;;4.28;0.57;;;;;;;18.90;47.20;101469.91;6011142;28;20062;-67
2022/07/15 10:14:45;;;;;;;2.00;1.20;;;;;;;18.75;47.06;101487.03;6025738;28;20034;-67
2022/07/15 10:18:11;;;;;;;0.90;0.50;;;;;;;18.62;48.02;101486.75;6025630;28;20829;-67
2022/07/15 10:21:26;;;;;;;1.42;0.52;;;;;;;18.63;47.40;101483.91;6026411;28;20031;-66
2022/07/15 10:24:40;;;;;;;4.13;0.70;;;;;;;18.48;48.38;101488.38;6025894;28;20100;-67
2022/07/15 10:27:56;;;;;;;2.50;0.70;;;;;;;18.63;48.31;101486.59;6015258;28;20045;-67
2022/07/15 10:31:13;;;;;;;2.70;0.60;;;;;;;18.50;48.90;101486.38;6024436;28;20042;-64
2022/07/15 10:34:12;;;;;;;3.97;0.90;;;;;;;18.62;49.88;101486.75;6017480;28;20130;-67
2022/07/15 10:37:10;;;;;;;2.00;0.80;;;;;;;18.48;49.99;101480.31;6019063;28;20041;-64
2022/07/15 10:40:06;;;;;;;2.38;0.47;;;;;;;18.31;50.83;101478.72;6022149;28;20038;-64
2022/07/15 10:43:03;;;;;;;3.63;0.60;;;;;;;18.83;49.05;101484.25;6040836;28;20046;-66
2022/07/15 10:46:05;;;;;;;2.45;0.90;;;;;;;18.89;48.55;101486.19;6026499;28;20062;-66
2022/07/15 10:49:00;;;;;;;1.70;0.45;;;;;;;18.86;48.97;101483.91;6022935;28;20034;-65
2022/07/15 10:52:10;;;;;;;2.85;0.70;;;;;;;18.49;49.81;101489.22;6025263;28;20517;-65
2022/07/15 10:55:06;;;;;;;3.97;0.70;;;;;;;18.45;50.26;101486.03;6024680;28;20454;-64
2022/07/15 10:58:02;;;;;;;4.18;0.60;;;;;;;18.68;50.17;101476.13;6025697;28;20065;-64
2022/07/15 11:01:10;;;;;;;2.33;0.65;;;;;;;18.90;49.71;101474.44;6025507;28;20117;-66
2022/07/15 11:04:25;;;;;;;1.92;0.65;;;;;;;18.95;50.20;101488.19;6016608;28;20034;-66
2022/07/15 11:07:24;;;;;;;4.22;0.90;;;;;;;19.34;49.38;101477.22;6025689;28;20026;-66
2022/07/15 11:10:20;;;;;;;1.77;0.60;;;;;;;19.47;48.86;101474.75;6017586;28;20390;-66
2022/07/15 11:13:32;;;;;;;2.65;0.82;;;;;;;19.62;47.83;101470.22;6025184;28;20108;-65
2022/07/15 11:16:27;;;;;;;2.88;0.90;;;;;;;19.65;48.34;101480.59;6015128;28;20030;-66
2022/07/15 11:19:23;;;;;;;3.03;0.60;;;;;;;19.24;49.09;101477.47;6020512;28;20522;-64
2022/07/15 11:22:20;;;;;;;4.53;0.85;;;;;;;19.11;50.01;101476.44;6023854;28;20045;-63
2022/07/15 11:25:20;;;;;;;2.53;1.02;;;;;;;19.60;49.16;101477.63;6025112;28;20026;-65
2022/07/15 11:28:17;;;;;;;3.08;0.60;;;;;;;19.94;48.20;101458.19;6023189;28;20026;-66
2022/07/15 11:31:12;;;;;;;4.97;1.00;;;;;;;20.25;47.45;101477.63;6024078;28;20038;-66
2022/07/15 11:34:08;;;;;;;1.50;0.60;;;;;;;20.51;46.78;101472.56;6024303;28;20494;-66
2022/07/15 11:37:04;;;;;;;2.95;0.63;;;;;;;20.84;44.62;101462.06;6013059;28;20639;-65
2022/07/15 11:40:06;;;;;;;2.80;0.63;;;;;;;20.98;45.01;101468.41;6004150;28;20039;-67
2022/07/15 11:46:24;;;;;;;3.00;0.68;;;;;;;20.67;45.23;101447.19;6024155;28;20389;-65
2022/07/15 11:49:26;;;;;;;3.20;0.73;;;;;;;21.13;44.17;101450.28;6012039;28;20165;-66
2022/07/15 11:52:24;;;;;;;2.08;0.75;;;;;;;21.31;44.64;101443.34;6023558;28;20030;-65
2022/07/15 11:55:19;;;;;;;4.78;0.85;;;;;;;21.55;42.86;101427.72;6014963;28;20034;-66
2022/07/15 11:58:14;;;;;;;3.97;0.80;;;;;;;20.99;43.11;101427.75;6008515;28;20109;-64
2022/07/15 12:01:15;;;;;;;2.17;0.50;;;;;;;20.65;43.78;101436.63;6019899;28;20034;-64
2022/07/15 12:04:11;;;;;;;3.10;0.80;;;;;;;20.12;44.62;101443.28;6019546;28;20490;-66
2022/07/15 12:07:07;;;;;;;1.67;0.60;;;;;;;19.76;45.92;101428.97;6024995;28;20062;-65
2022/07/15 12:10:02;;;;;;;4.35;0.85;;;;;;;19.47;46.89;101426.31;6022475;28;20478;-65
2022/07/15 12:12:58;;;;;;;2.72;0.80;;;;;;;19.42;46.89;101431.44;6018916;28;20111;-64
2022/07/15 12:15:54;;;;;;;3.38;0.93;;;;;;;19.08;47.88;101433.81;6024555;28;20489;-65
2022/07/15 12:18:52;;;;;;;2.38;0.73;;;;;;;18.79;48.70;101440.78;6022422;28;20125;-66
2022/07/15 12:21:57;;;;;;;3.25;0.60;;;;;;;19.10;47.63;101431.75;6022591;28;20490;-66
2022/07/15 12:24:52;;;;;;;2.40;0.50;;;;;;;19.31;47.45;101418.41;6023537;28;20414;-66
2022/07/15 12:27:48;;;;;;;0.98;0.65;;;;;;;19.65;46.73;101432.13;6024448;28;20061;-66
2022/07/15 12:30:43;;;;;;;1.73;0.60;;;;;;;20.00;45.86;101417.06;6024231;28;20062;-65
2022/07/15 12:33:38;;;;;;;2.87;0.70;;;;;;;20.45;44.77;101423.97;6024219;28;20110;-65
2022/07/15 12:36:35;;;;;;;1.70;0.63;;;;;;;21.02;44.11;101418.44;6028447;28;20037;-67
2022/07/15 12:39:30;;;;;;;2.45;0.70;;;;;;;21.53;41.67;101425.19;6028612;28;20093;-66
2022/07/15 12:42:48;;;;;;;2.10;0.70;;;;;;;21.38;42.63;101432.59;6027031;28;20042;-67
2022/07/15 12:45:43;;;;;;;1.50;0.50;;;;;;;21.22;42.97;101427.53;6027740;28;20285;-64
2022/07/15 12:48:49;;;;;;;3.00;0.80;;;;;;;20.71;44.09;101426.88;6028464;28;20026;-66
2022/07/15 12:51:44;;;;;;;4.78;0.90;;;;;;;20.90;43.42;101434.31;6026946;28;20168;-66
2022/07/15 12:54:39;;;;;;;2.10;0.70;;;;;;;20.52;44.61;101414.91;6028455;28;20046;-66
2022/07/15 12:57:35;;;;;;;2.40;0.68;;;;;;;20.35;45.69;101421.59;6027838;28;20042;-66
2022/07/15 13:00:33;;;;;;;1.80;0.68;;;;;;;20.68;45.81;101435.41;6026412;28;20049;-66
2022/07/15 13:03:29;;;;;;;3.53;0.68;;;;;;;20.46;45.16;101428.34;6021004;28;20038;-66
2022/07/15 13:06:24;;;;;;;2.43;0.67;;;;;;;21.10;44.84;101421.84;6028819;28;20042;-66
2022/07/15 13:09:20;;;;;;;3.47;0.90;;;;;;;21.22;44.13;101422.97;6028440;28;20537;-64
2022/07/15 13:12:16;;;;;;;3.53;1.23;;;;;;;21.24;43.97;101425.47;6027392;28;20474;-66
2022/07/15 13:15:13;;;;;;;2.13;0.60;;;;;;;21.28;43.36;101422.16;6027427;28;20717;-66
2022/07/15 13:18:08;;;;;;;1.80;0.70;;;;;;;21.08;43.25;101421.22;6026876;28;20109;-65
2022/07/15 13:21:04;;;;;;;4.40;1.10;;;;;;;20.74;44.67;101430.03;6022160;28;20045;-65
2022/07/15 13:23:59;;;;;;;2.30;0.77;;;;;;;20.80;45.52;101425.72;6024422;28;20038;-65
2022/07/15 13:26:55;;;;;;;2.97;0.80;;;;;;;20.26;46.78;101425.44;6010229;28;20034;-66
2022/07/15 13:29:50;;;;;;;2.67;0.88;;;;;;;19.76;47.51;101438.94;6026630;28;20517;-65
2022/07/15 13:32:46;;;;;;;2.07;0.83;;;;;;;19.32;47.35;101434.34;6019638;28;20026;-66
2022/07/15 13:35:41;;;;;;;3.30;1.08;;;;;;;18.84;48.82;101441.06;6024881;28;20777;-65
2022/07/15 13:38:37;;;;;;;5.20;1.00;;;;;;;18.70;51.70;101441.00;6027120;28;20049;-66
2022/07/15 13:41:32;;;;;;;4.13;0.93;;;;;;;18.37;51.42;101429.69;6010745;28;20027;-67
2022/07/15 13:44:27;;;;;;;3.20;0.73;;;;;;;18.29;51.00;101451.22;6022901;28;20046;-64
2022/07/15 13:47:24;;;;;;;3.92;1.00;;;;;;;18.24;51.44;101453.59;6020127;28;20281;-66
2022/07/15 13:53:33;;;;;;;2.78;0.70;;;;;;;18.35;51.92;101454.03;6027137;28;20031;-67
2022/07/15 13:56:28;;;;;;;1.63;0.70;;;;;;;18.58;52.28;101450.53;6018668;28;20034;-67
2022/07/15 13:59:24;;;;;;;7.80;0.97;;;;;;;18.70;53.31;101447.22;6027411;28;20476;-65